Time;durP1;ratioP1;P1;durP2;ratioP2;P2;SDS_P1;SDS_P2;PMS_P1;PMS_P2;Temp;Humidity;BMP_temperature;BMP_pressure;BME280_temperature;BME280_humidity;BME280_pressure;Samples;Min_cycle;Max_cycle;Signal;HPM_P1;HPM_P2
2022/06/19 00:02:17;;;;;;;20.37;2.97;;;14.20;99.90;;;;;;4991964;28;20050;-53
2022/06/19 00:04:49;;;;;;;19.65;3.28;;;14.20;99.90;;;;;;4991460;28;20047;-51
2022/06/19 00:07:15;;;;;;;20.15;3.85;;;14.20;99.90;;;;;;4992058;28;20053;-51
2022/06/19 00:09:42;;;;;;;11.63;3.00;;;14.20;99.90;;;;;;4991484;28;20042;-53
2022/06/19 00:12:08;;;;;;;14.52;3.08;;;14.20;99.90;;;;;;4991430;28;20050;-51
2022/06/19 00:14:34;;;;;;;18.40;4.32;;;14.10;99.90;;;;;;4991305;28;20050;-52
2022/06/19 00:17:07;;;;;;;16.35;3.40;;;14.10;99.90;;;;;;4991232;28;20050;-51
2022/06/19 00:19:33;;;;;;;17.30;3.30;;;14.10;99.90;;;;;;4990251;28;20034;-52
2022/06/19 00:21:59;;;;;;;17.95;3.42;;;14.10;99.90;;;;;;4991563;28;20512;-54
2022/06/19 00:24:24;;;;;;;18.00;3.13;;;14.10;99.90;;;;;;4991216;28;20121;-53
2022/06/19 00:26:50;;;;;;;11.02;2.03;;;14.10;99.90;;;;;;4991036;28;20068;-48
2022/06/19 00:29:16;;;;;;;24.42;4.43;;;14.10;99.90;;;;;;4991092;28;20047;-53
2022/06/19 00:31:41;;;;;;;8.57;2.58;;;14.10;99.90;;;;;;4991010;28;21008;-50
2022/06/19 00:34:08;;;;;;;16.58;3.28;;;14.10;99.90;;;;;;4990885;28;20435;-51
2022/06/19 00:36:34;;;;;;;15.43;2.88;;;14.10;99.90;;;;;;4990954;28;20182;-54
2022/06/19 00:39:00;;;;;;;13.27;3.33;;;14.10;99.90;;;;;;4991047;28;20169;-51
2022/06/19 00:41:31;;;;;;;17.90;4.07;;;14.10;99.90;;;;;;4990834;28;20088;-50
2022/06/19 00:44:05;;;;;;;19.00;3.63;;;14.10;99.90;;;;;;4990842;28;20034;-53
2022/06/19 00:46:51;;;;;;;16.52;3.58;;;14.30;99.90;;;;;;4991357;28;20495;-51
2022/06/19 00:49:25;;;;;;;14.60;3.53;;;14.10;99.90;;;;;;4990614;28;20551;-51
2022/06/19 00:51:59;;;;;;;15.55;3.30;;;14.10;99.90;;;;;;4990514;28;20101;-50
2022/06/19 00:54:26;;;;;;;15.00;3.30;;;14.30;99.90;;;;;;4990858;28;20061;-52
2022/06/19 00:56:52;;;;;;;15.27;3.40;;;14.00;99.90;;;;;;4990439;28;20159;-53
2022/06/19 00:59:18;;;;;;;17.25;3.50;;;14.00;99.90;;;;;;4990936;28;20079;-49
2022/06/19 01:01:44;;;;;;;16.27;3.65;;;14.00;99.90;;;;;;4990758;28;20043;-52
2022/06/19 01:04:37;;;;;;;13.48;3.28;;;14.10;99.90;;;;;;4992587;28;20050;-53
2022/06/19 01:07:05;;;;;;;17.05;3.80;;;14.10;99.90;;;;;;4990372;28;20496;-52
2022/06/19 01:09:31;;;;;;;;;;;14.00;99.90;;;;;;4990969;28;20099;-52
2022/06/19 01:11:56;;;;;;;16.65;3.42;;;14.00;99.90;;;;;;4990672;28;19921;-52
2022/06/19 01:14:24;;;;;;;18.98;5.03;;;14.00;99.90;;;;;;4990583;28;20042;-51
2022/06/19 01:16:50;;;;;;;10.32;2.60;;;14.00;99.90;;;;;;4990269;28;20430;-52
2022/06/19 01:19:33;;;;;;;17.35;3.55;;;14.00;99.90;;;;;;4990402;28;20038;-53
2022/06/19 01:22:14;;;;;;;17.98;2.80;;;14.00;99.90;;;;;;4990243;28;20057;-53
2022/06/19 01:24:53;;;;;;;12.18;3.38;;;;;;;;;;4990426;28;20091;-53
2022/06/19 01:30:07;;;;;;;10.77;2.08;;;14.10;99.90;;;;;;4990069;28;20103;-51
2022/06/19 01:32:36;;;;;;;15.88;3.10;;;14.10;99.90;;;;;;4990059;28;20507;-53
2022/06/19 01:35:04;;;;;;;15.20;3.63;;;14.10;99.90;;;;;;4990266;28;20038;-50
2022/06/19 01:37:30;;;;;;;15.52;3.83;;;14.10;99.90;;;;;;4989884;28;20484;-54
2022/06/19 01:40:03;;;;;;;17.27;3.35;;;14.10;99.90;;;;;;4990162;28;20077;-52
2022/06/19 01:42:30;;;;;;;13.80;2.97;;;14.10;99.90;;;;;;4990431;28;20053;-52
2022/06/19 01:44:57;;;;;;;14.47;2.93;;;14.00;99.90;;;;;;4989941;28;20035;-54
2022/06/19 01:47:29;;;;;;;14.13;3.10;;;14.10;99.90;;;;;;4990068;28;20096;-52
2022/06/19 01:52:42;;;;;;;15.00;2.63;;;14.20;99.90;;;;;;5111307;22;20406;-65
2022/06/19 01:55:17;;;;;;;22.40;4.00;;;14.20;99.90;;;;;;5095295;28;20039;-65
2022/06/19 01:57:46;;;;;;;18.65;2.97;;;14.10;99.90;;;;;;5113509;28;20474;-65
2022/06/19 02:00:21;;;;;;;17.52;2.85;;;14.20;99.90;;;;;;5104379;28;20048;-65
2022/06/19 02:02:53;;;;;;;12.75;2.38;;;14.20;99.90;;;;;;5075202;28;20040;-65
2022/06/19 02:05:19;;;;;;;14.48;2.42;;;14.20;99.90;;;;;;5093124;28;20403;-65
2022/06/19 02:07:46;;;;;;;7.70;2.17;;;14.10;99.90;;;;;;5093761;28;20040;-65
2022/06/19 02:10:11;;;;;;;13.65;2.40;;;14.20;99.90;;;;;;5113501;28;20122;-66
2022/06/19 02:12:37;;;;;;;13.27;2.40;;;14.10;99.90;;;;;;5113309;28;20123;-65
2022/06/19 02:15:07;;;;;;;9.25;2.15;;;;;;;;;;5113435;28;20044;-65
2022/06/19 02:17:36;;;;;;;12.20;2.85;;;14.20;99.90;;;;;;5095154;28;20071;-65
2022/06/19 02:20:03;;;;;;;14.40;2.63;;;14.20;99.90;;;;;;5113256;28;20051;-65
2022/06/19 02:22:29;;;;;;;13.20;2.83;;;14.20;99.90;;;;;;5113485;28;20040;-65
2022/06/19 02:24:55;;;;;;;12.77;2.42;;;14.20;99.90;;;;;;5111726;28;20047;-65
2022/06/19 02:27:20;;;;;;;11.23;2.55;;;14.20;99.90;;;;;;5092961;28;20043;-65
2022/06/19 02:29:46;;;;;;;8.93;2.13;;;14.20;99.90;;;;;;5092760;28;20092;-65
2022/06/19 02:32:25;;;;;;;11.95;2.47;;;14.20;99.90;;;;;;5092818;28;20043;-65
2022/06/19 02:34:51;;;;;;;6.03;2.08;;;14.30;99.90;;;;;;5092683;28;20044;-65
2022/06/19 02:37:23;;;;;;;9.60;2.33;;;14.30;99.90;;;;;;5092915;28;20043;-65
2022/06/19 02:40:19;;;;;;;12.52;2.90;;;14.20;99.90;;;;;;5092909;28;20044;-65
2022/06/19 02:42:47;;;;;;;10.50;2.50;;;14.30;99.90;;;;;;5093800;28;20448;-65
2022/06/19 02:45:21;;;;;;;10.95;2.60;;;14.30;99.90;;;;;;5096304;28;20514;-65
2022/06/19 02:47:48;;;;;;;10.95;2.47;;;14.30;99.90;;;;;;5096436;28;20056;-65
2022/06/19 02:50:26;;;;;;;13.95;2.28;;;14.30;99.90;;;;;;5096238;28;20388;-65
2022/06/19 02:52:52;;;;;;;;;;;14.30;99.90;;;;;;5096785;28;20051;-65
2022/06/19 02:55:19;;;;;;;8.40;1.70;;;14.30;99.90;;;;;;5096149;28;20412;-65
2022/06/19 02:57:45;;;;;;;4.37;1.23;;;14.30;99.90;;;;;;5095926;28;20051;-65
2022/06/19 03:00:23;;;;;;;10.35;1.92;;;14.20;99.90;;;;;;5096323;28;20044;-65
2022/06/19 03:02:51;;;;;;;8.68;1.60;;;14.20;99.90;;;;;;5096198;28;20072;-65
2022/06/19 03:05:22;;;;;;;8.63;1.80;;;14.20;99.90;;;;;;5078075;28;20093;-66
2022/06/19 03:07:48;;;;;;;10.90;2.00;;;14.20;99.90;;;;;;5096020;28;20040;-65
2022/06/19 03:10:14;;;;;;;8.25;1.83;;;14.20;99.90;;;;;;5095746;28;20047;-65
2022/06/19 03:12:39;;;;;;;8.65;1.90;;;14.30;99.90;;;;;;5096038;28;20059;-65
2022/06/19 03:15:06;;;;;;;9.18;2.25;;;14.20;99.90;;;;;;5095862;28;20103;-65
2022/06/19 03:17:31;;;;;;;13.52;2.58;;;14.20;99.90;;;;;;5095680;28;20403;-66
2022/06/19 03:19:57;;;;;;;11.05;1.73;;;14.30;99.90;;;;;;5095739;28;20056;-65
2022/06/19 03:22:23;;;;;;;7.60;1.52;;;14.20;99.90;;;;;;5095676;28;20072;-65
2022/06/19 03:24:49;;;;;;;9.57;1.92;;;14.30;99.90;;;;;;5095572;28;20101;-65
2022/06/19 03:27:14;;;;;;;8.73;1.65;;;14.30;99.90;;;;;;5095812;28;20044;-65
2022/06/19 03:29:40;;;;;;;12.85;1.98;;;14.30;99.90;;;;;;5095706;28;20047;-65
2022/06/19 03:32:08;;;;;;;10.50;2.47;;;14.30;99.90;;;;;;5095845;28;20032;-65
2022/06/19 03:34:34;;;;;;;9.77;2.08;;;14.30;99.90;;;;;;5077284;28;20051;-65
2022/06/19 03:37:00;;;;;;;8.52;2.13;;;14.40;99.90;;;;;;5095261;28;20039;-65
2022/06/19 03:39:25;;;;;;;11.63;2.15;;;14.40;99.90;;;;;;5095208;28;20040;-66
2022/06/19 03:41:51;;;;;;;11.75;2.47;;;14.40;99.90;;;;;;5095536;28;20495;-65
2022/06/19 03:44:16;;;;;;;8.20;2.15;;;14.40;99.90;;;;;;5095459;28;20059;-65
2022/06/19 03:46:42;;;;;;;10.13;2.45;;;14.40;99.90;;;;;;5095557;28;20039;-65
2022/06/19 03:49:09;;;;;;;11.68;2.17;;;14.40;99.90;;;;;;5095194;28;20546;-65
2022/06/19 03:51:35;;;;;;;12.15;2.40;;;14.40;99.90;;;;;;5095229;28;20056;-65
2022/06/19 03:54:00;;;;;;;12.23;2.20;;;14.30;99.90;;;;;;5094062;28;20406;-65
2022/06/19 03:56:29;;;;;;;11.73;2.10;;;14.40;99.90;;;;;;5094882;28;20399;-65
2022/06/19 03:58:56;;;;;;;8.95;1.98;;;14.30;99.90;;;;;;5095136;28;20036;-65
2022/06/19 04:01:27;;;;;;;13.05;2.72;;;14.30;99.90;;;;;;5095041;28;20040;-65
2022/06/19 04:03:55;;;;;;;13.43;2.95;;;14.40;99.90;;;;;;5094959;28;20072;-66
2022/06/19 04:06:24;;;;;;;10.05;2.55;;;14.20;99.90;;;;;;5094698;28;20044;-66
2022/06/19 04:08:50;;;;;;;11.93;2.42;;;14.50;99.90;;;;;;5094926;28;20037;-65
2022/06/19 04:11:18;;;;;;;12.32;2.53;;;14.80;99.90;;;;;;5094872;28;20044;-65
2022/06/19 04:13:43;;;;;;;;;;;14.50;99.90;;;;;;5095287;28;20395;-65
2022/06/19 04:16:15;;;;;;;15.55;2.63;;;14.40;99.90;;;;;;5094850;28;19919;-66
2022/06/19 04:18:41;;;;;;;15.10;2.45;;;14.50;99.90;;;;;;5094579;28;20511;-65
2022/06/19 04:21:15;;;;;;;16.58;2.60;;;14.40;99.90;;;;;;5093295;28;20055;-65
2022/06/19 04:23:41;;;;;;;13.15;2.63;;;14.30;99.90;;;;;;5094811;28;20048;-65
2022/06/19 04:26:12;;;;;;;13.68;2.30;;;14.30;99.90;;;;;;5094548;28;20195;-65
2022/06/19 04:28:38;;;;;;;13.20;2.60;;;14.30;99.90;;;;;;5076594;28;20052;-65
2022/06/19 04:31:04;;;;;;;14.50;3.25;;;14.30;99.90;;;;;;5094389;28;20082;-65
2022/06/19 04:33:32;;;;;;;12.98;3.25;;;14.40;99.90;;;;;;5094249;28;20035;-65
2022/06/19 04:35:57;;;;;;;13.77;2.20;;;14.40;99.90;;;;;;5094497;28;20048;-65
2022/06/19 04:38:23;;;;;;;12.75;2.10;;;14.50;99.90;;;;;;5094275;28;20123;-65
2022/06/19 04:40:50;;;;;;;14.30;2.50;;;14.50;99.90;;;;;;5094293;28;20114;-65
2022/06/19 04:43:16;;;;;;;10.23;2.20;;;14.50;99.90;;;;;;5094224;28;20180;-65
2022/06/19 04:45:42;;;;;;;7.00;1.98;;;14.50;99.90;;;;;;5094110;28;20483;-65
2022/06/19 04:48:09;;;;;;;11.02;2.55;;;14.50;99.90;;;;;;5093870;28;20495;-66
2022/06/19 04:50:35;;;;;;;8.38;1.67;;;14.50;99.90;;;;;;5093956;28;20403;-66
2022/06/19 04:53:00;;;;;;;9.88;2.22;;;14.60;99.90;;;;;;5093990;28;20509;-65
2022/06/19 04:55:26;;;;;;;6.25;1.70;;;14.60;99.90;;;;;;5093974;28;20044;-66
2022/06/19 04:57:52;;;;;;;7.35;2.20;;;;;;;;;;5075647;28;20040;-65
2022/06/19 05:00:20;;;;;;;9.50;2.30;;;14.80;99.90;;;;;;5093828;28;20542;-66
2022/06/19 05:02:49;;;;;;;10.75;2.17;;;15.30;99.90;;;;;;5075597;28;20048;-66
2022/06/19 05:05:18;;;;;;;12.18;2.40;;;15.60;99.90;;;;;;5093620;28;20040;-66
2022/06/19 05:07:44;;;;;;;9.32;2.17;;;;;;;;;;5093784;28;20039;-66
2022/06/19 05:10:10;;;;;;;10.57;1.65;;;16.90;99.90;;;;;;5093767;28;20133;-66
2022/06/19 05:12:36;;;;;;;11.05;2.30;;;17.60;99.90;;;;;;5093721;28;20122;-66
2022/06/19 05:15:03;;;;;;;9.45;2.53;;;17.80;99.90;;;;;;5093676;28;20054;-66
2022/06/19 05:17:29;;;;;;;7.65;1.50;;;17.90;99.90;;;;;;5058817;28;20048;-66
2022/06/19 05:19:54;;;;;;;8.73;1.60;;;17.60;99.90;;;;;;5075677;28;20510;-65
2022/06/19 05:22:20;;;;;;;8.98;2.60;;;18.00;99.90;;;;;;5093779;28;20081;-66
2022/06/19 05:24:45;;;;;;;5.82;1.60;;;18.40;99.90;;;;;;5093513;28;20043;-66
2022/06/19 05:27:11;;;;;;;6.90;1.58;;;18.00;99.90;;;;;;5093473;28;20047;-66
2022/06/19 05:29:38;;;;;;;7.70;1.70;;;17.30;99.90;;;;;;5093347;28;20089;-66
2022/06/19 05:32:04;;;;;;;5.60;1.50;;;17.10;99.90;;;;;;5093243;28;20039;-65
2022/06/19 05:34:31;;;;;;;8.70;1.70;;;16.70;99.90;;;;;;5093520;28;20040;-66
2022/06/19 05:36:57;;;;;;;7.43;1.80;;;16.20;99.90;;;;;;5093536;28;20047;-65
2022/06/19 05:39:23;;;;;;;6.28;1.60;;;16.00;99.90;;;;;;5093425;28;20499;-66
2022/06/19 05:41:48;;;;;;;9.63;1.80;;;15.80;99.90;;;;;;5093226;28;20043;-66
2022/06/19 05:44:14;;;;;;;8.65;1.80;;;15.70;99.90;;;;;;5093181;28;20036;-66
2022/06/19 05:46:41;;;;;;;8.60;1.88;;;15.70;99.90;;;;;;5093411;28;20048;-66
2022/06/19 05:49:08;;;;;;;9.18;1.77;;;15.50;99.90;;;;;;5093536;28;20066;-66
2022/06/19 05:51:34;;;;;;;8.18;1.63;;;15.40;99.90;;;;;;5093030;28;20056;-66
2022/06/19 05:54:00;;;;;;;5.75;1.30;;;15.50;99.90;;;;;;5093214;28;20036;-66
2022/06/19 05:56:27;;;;;;;9.90;2.30;;;15.70;99.90;;;;;;5093114;28;20089;-66
2022/06/19 05:58:52;;;;;;;7.00;2.00;;;15.60;99.90;;;;;;5093098;28;20044;-66
2022/06/19 06:01:20;;;;;;;9.50;1.65;;;15.70;99.90;;;;;;5093219;28;20277;-66
2022/06/19 06:03:46;;;;;;;7.38;1.77;;;15.80;99.90;;;;;;5093313;28;20044;-66
2022/06/19 06:06:14;;;;;;;9.35;1.98;;;15.90;99.90;;;;;;5093191;28;20483;-66
2022/06/19 06:08:40;;;;;;;8.48;1.80;;;16.00;99.90;;;;;;5093015;28;20076;-66
2022/06/19 06:11:06;;;;;;;9.98;1.80;;;16.10;99.90;;;;;;5093034;28;20040;-66
2022/06/19 06:13:32;;;;;;;10.10;1.75;;;16.40;99.90;;;;;;5092790;28;20534;-66
2022/06/19 06:15:58;;;;;;;6.53;1.38;;;16.30;99.90;;;;;;5093094;28;20115;-65
2022/06/19 06:18:24;;;;;;;7.28;1.70;;;16.40;99.90;;;;;;5095185;28;20040;-65
2022/06/19 06:20:58;;;;;;;9.15;1.85;;;16.30;99.90;;;;;;5097031;28;20044;-66
2022/06/19 06:23:24;;;;;;;7.82;2.25;;;16.40;99.90;;;;;;5096804;28;20052;-66
2022/06/19 06:26:06;;;;;;;6.65;1.65;;;16.20;99.90;;;;;;5096724;28;20040;-65
2022/06/19 06:28:32;;;;;;;7.53;1.75;;;16.10;99.90;;;;;;5097004;28;20391;-66
2022/06/19 06:30:58;;;;;;;6.13;1.70;;;15.90;99.90;;;;;;5061833;28;20044;-65
2022/06/19 06:33:24;;;;;;;12.32;1.92;;;15.80;99.90;;;;;;5096565;28;20076;-65
2022/06/19 06:35:50;;;;;;;6.15;1.80;;;15.90;99.90;;;;;;5097189;28;20372;-65
2022/06/19 06:38:15;;;;;;;8.93;1.85;;;15.80;99.90;;;;;;5078388;28;20164;-65
2022/06/19 06:40:41;;;;;;;9.98;2.10;;;15.90;99.90;;;;;;5096364;28;20040;-66
2022/06/19 06:43:07;;;;;;;9.93;2.50;;;15.80;99.90;;;;;;5096607;28;20044;-65
2022/06/19 06:45:33;;;;;;;8.85;1.90;;;15.80;99.90;;;;;;5096506;28;20050;-65
2022/06/19 06:48:00;;;;;;;7.07;1.80;;;15.70;99.90;;;;;;5096488;28;20098;-65
2022/06/19 06:50:26;;;;;;;9.63;2.13;;;15.80;99.90;;;;;;5096094;28;20048;-65
2022/06/19 06:52:51;;;;;;;7.97;1.73;;;16.00;99.90;;;;;;5096327;28;20098;-65
2022/06/19 06:55:17;;;;;;;13.07;2.40;;;15.90;99.90;;;;;;5096201;28;20056;-65
2022/06/19 06:57:43;;;;;;;8.82;2.05;;;15.90;99.90;;;;;;5096481;28;20039;-65
2022/06/19 07:00:16;;;;;;;8.02;2.20;;;15.90;99.90;;;;;;5096246;28;20131;-65
2022/06/19 07:02:41;;;;;;;9.93;2.00;;;15.90;99.90;;;;;;5078196;28;20502;-65
2022/06/19 07:05:07;;;;;;;13.48;2.55;;;15.80;99.90;;;;;;5078150;28;20518;-65
2022/06/19 07:07:33;;;;;;;12.55;2.20;;;15.60;99.90;;;;;;5077944;28;20054;-66
2022/06/19 07:09:58;;;;;;;10.13;2.03;;;15.50;99.90;;;;;;5077709;28;20052;-65
2022/06/19 07:12:24;;;;;;;14.02;2.45;;;15.20;99.90;;;;;;5078050;28;20093;-66
2022/06/19 07:14:50;;;;;;;11.02;2.63;;;15.20;99.90;;;;;;5096089;28;20078;-66
2022/06/19 07:17:15;;;;;;;11.82;3.05;;;15.40;99.90;;;;;;5095811;28;20081;-66
2022/06/19 07:19:41;;;;;;;11.68;2.25;;;15.20;99.90;;;;;;5095803;28;20046;-66
2022/06/19 07:22:11;;;;;;;10.95;2.25;;;15.10;99.90;;;;;;5095755;28;20131;-66
2022/06/19 07:24:37;;;;;;;11.95;2.55;;;15.00;99.90;;;;;;5096001;28;20055;-65
2022/06/19 07:27:03;;;;;;;10.75;2.35;;;14.90;99.90;;;;;;5094664;28;20036;-65
2022/06/19 07:29:28;;;;;;;11.55;2.50;;;14.90;99.90;;;;;;5095344;28;20096;-66
2022/06/19 07:31:54;;;;;;;9.60;2.28;;;14.80;99.90;;;;;;5095463;28;20044;-65
2022/06/19 07:34:20;;;;;;;10.02;1.95;;;14.90;99.90;;;;;;5095547;28;20119;-65
2022/06/19 07:36:45;;;;;;;10.07;1.73;;;14.90;99.90;;;;;;5095325;28;20040;-66
2022/06/19 07:39:11;;;;;;;9.50;2.25;;;14.80;99.90;;;;;;5095669;28;20072;-66
2022/06/19 07:41:37;;;;;;;10.73;2.17;;;14.80;99.90;;;;;;5077255;28;20047;-65
2022/06/19 07:44:02;;;;;;;8.15;2.17;;;14.90;99.90;;;;;;5095393;28;20043;-66
2022/06/19 07:46:28;;;;;;;11.68;2.35;;;14.90;99.90;;;;;;5095671;28;20441;-66
2022/06/19 07:51:38;;;;;;;9.30;2.38;;;14.90;99.90;;;;;;5095054;28;20101;-65
2022/06/19 07:54:04;;;;;;;10.52;2.28;;;14.80;99.90;;;;;;5095371;28;20044;-66
2022/06/19 07:56:30;;;;;;;10.63;2.63;;;14.60;99.90;;;;;;5095157;28;20059;-65
2022/06/19 07:58:55;;;;;;;10.40;2.15;;;14.60;99.90;;;;;;5095470;28;20070;-65
2022/06/19 08:01:21;;;;;;;10.23;2.22;;;14.60;99.90;;;;;;5094933;28;20040;-65
2022/06/19 08:03:46;;;;;;;9.27;2.17;;;14.50;99.90;;;;;;5094950;28;20040;-65
2022/06/19 08:06:14;;;;;;;9.65;2.08;;;14.50;99.90;;;;;;5095299;28;20123;-65
2022/06/19 08:08:40;;;;;;;9.63;2.50;;;14.60;99.90;;;;;;5095032;28;20447;-65
2022/06/19 08:11:06;;;;;;;8.40;2.15;;;14.60;99.90;;;;;;5094955;28;20046;-65
2022/06/19 08:13:33;;;;;;;11.77;2.28;;;14.60;99.90;;;;;;5094783;28;20131;-65
2022/06/19 08:16:03;;;;;;;12.63;2.63;;;14.70;99.90;;;;;;5094696;28;20092;-66
2022/06/19 08:18:30;;;;;;;13.65;2.00;;;14.50;99.90;;;;;;5094417;28;20065;-65
2022/06/19 08:20:55;;;;;;;10.30;2.55;;;14.50;99.90;;;;;;5094750;28;20121;-65
2022/06/19 08:23:21;;;;;;;14.20;2.63;;;14.60;99.90;;;;;;5094648;28;20040;-65
2022/06/19 08:25:48;;;;;;;7.80;2.38;;;14.60;99.90;;;;;;5094475;28;20400;-65
2022/06/19 08:28:15;;;;;;;8.95;2.60;;;14.60;99.90;;;;;;5094508;28;20047;-66
2022/06/19 08:30:43;;;;;;;11.88;2.40;;;14.80;99.90;;;;;;5094433;28;20044;-65
2022/06/19 08:33:09;;;;;;;12.90;2.53;;;14.80;99.90;;;;;;5094290;28;20040;-66
2022/06/19 08:35:41;;;;;;;9.90;1.92;;;14.70;99.90;;;;;;5094515;28;20118;-65
2022/06/19 08:38:10;;;;;;;9.27;2.22;;;14.70;99.90;;;;;;5094412;28;20032;-65
2022/06/19 08:40:51;;;;;;;10.07;2.10;;;14.70;99.90;;;;;;5093642;28;20119;-65
2022/06/19 08:43:42;;;;;;;11.30;2.95;;;14.70;99.90;;;;;;5094126;28;20503;-65
2022/06/19 08:46:27;;;;;;;8.60;1.92;;;14.80;99.90;;;;;;5094258;28;20101;-65
2022/06/19 08:49:20;;;;;;;9.75;2.03;;;14.60;99.90;;;;;;5094173;28;20044;-65
2022/06/19 08:52:09;;;;;;;6.57;1.60;;;14.50;99.90;;;;;;5093976;28;20048;-65
2022/06/19 08:54:53;;;;;;;9.95;2.33;;;14.70;99.90;;;;;;5094159;28;20067;-65
2022/06/19 08:57:42;;;;;;;12.02;2.20;;;14.50;99.90;;;;;;5093948;28;20552;-66
2022/06/19 09:00:17;;;;;;;8.02;2.20;;;14.50;99.90;;;;;;5077902;28;20060;-66
2022/06/19 09:03:12;;;;;;;12.10;2.58;;;14.70;99.90;;;;;;5093929;28;20115;-66
2022/06/19 09:06:06;;;;;;;13.60;2.50;;;14.70;99.90;;;;;;5093868;28;20048;-65
2022/06/19 09:09:04;;;;;;;11.35;2.60;;;14.70;99.90;;;;;;5093683;28;20119;-65
2022/06/19 09:11:39;;;;;;;12.02;2.88;;;14.80;99.90;;;;;;5087257;28;20109;-65
2022/06/19 09:14:20;;;;;;;7.80;2.45;;;14.80;99.90;;;;;;5093621;28;20529;-65
2022/06/19 09:17:04;;;;;;;8.85;2.25;;;14.80;99.90;;;;;;5093443;28;20093;-65
2022/06/19 09:20:02;;;;;;;10.43;2.33;;;14.70;99.90;;;;;;5093897;28;20047;-65
2022/06/19 09:23:01;;;;;;;12.07;2.30;;;14.70;99.90;;;;;;5093656;28;20047;-65
2022/06/19 09:25:49;;;;;;;8.25;2.00;;;14.70;99.90;;;;;;5093696;28;20436;-65
2022/06/19 09:28:34;;;;;;;10.80;2.20;;;14.80;99.90;;;;;;5093724;28;20052;-65
2022/06/19 09:31:39;;;;;;;7.82;1.85;;;14.80;99.90;;;;;;5093506;28;20044;-65
2022/06/19 09:34:10;;;;;;;10.20;2.15;;;15.00;99.90;;;;;;4991890;28;20421;-65
2022/06/19 09:36:59;;;;;;;8.50;2.00;;;15.10;99.90;;;;;;4991702;28;20461;-66
2022/06/19 09:39:28;;;;;;;9.18;1.75;;;15.30;99.90;;;;;;4991789;28;20125;-66
2022/06/19 09:42:13;;;;;;;10.20;2.53;;;15.60;99.90;;;;;;4991656;28;20125;-66
2022/06/19 09:44:41;;;;;;;9.85;2.35;;;15.50;99.90;;;;;;4975512;28;20054;-66
2022/06/19 09:47:14;;;;;;;;;;;16.30;99.90;;;;;;4992138;28;20046;-65
2022/06/19 09:49:49;;;;;;;8.52;2.25;;;16.40;99.90;;;;;;4991677;28;20419;-66
2022/06/19 09:52:39;;;;;;;9.70;2.40;;;16.50;99.90;;;;;;4991524;28;20457;-65
2022/06/19 09:55:16;;;;;;;10.68;1.92;;;16.60;99.90;;;;;;4995795;28;20132;-65
2022/06/19 09:57:51;;;;;;;10.77;3.05;;;16.80;99.90;;;;;;4995622;28;20605;-65
2022/06/19 10:00:24;;;;;;;10.63;2.58;;;17.00;99.90;;;;;;4979343;28;20142;-65
2022/06/19 10:02:57;;;;;;;8.88;2.38;;;17.00;99.90;;;;;;4995447;28;20053;-65
2022/06/19 10:05:50;;;;;;;7.38;1.92;;;17.00;99.90;;;;;;4995598;28;20125;-65
2022/06/19 10:08:32;;;;;;;8.82;2.05;;;17.00;99.90;;;;;;5058091;28;20055;-65
2022/06/19 10:11:15;;;;;;;8.95;2.33;;;17.20;99.90;;;;;;5096468;28;20142;-65
2022/06/19 10:13:52;;;;;;;7.47;2.17;;;17.10;99.90;;;;;;5097332;28;20040;-65
2022/06/19 10:16:48;;;;;;;7.70;2.00;;;17.20;99.90;;;;;;5097144;28;20048;-65
2022/06/19 10:19:24;;;;;;;11.63;2.15;;;17.00;99.90;;;;;;5097066;28;20048;-65
2022/06/19 10:22:14;;;;;;;6.50;2.00;;;17.10;99.90;;;;;;5097147;28;20040;-64
2022/06/19 10:24:59;;;;;;;10.43;2.05;;;17.20;99.90;;;;;;5096999;28;20047;-65
2022/06/19 10:27:52;;;;;;;9.63;2.22;;;17.20;99.90;;;;;;5096739;28;20441;-64
2022/06/19 10:30:38;;;;;;;9.40;2.40;;;17.30;99.90;;;;;;5096858;28;20055;-65
2022/06/19 10:33:25;;;;;;;9.32;2.63;;;17.40;99.90;;;;;;5096728;28;20075;-65
2022/06/19 10:36:28;;;;;;;9.63;2.28;;;17.30;99.90;;;;;;5095455;28;20119;-65
2022/06/19 10:39:05;;;;;;;6.82;2.08;;;17.20;99.90;;;;;;5096756;28;20101;-65
2022/06/19 10:42:01;;;;;;;7.68;1.92;;;17.20;99.90;;;;;;5096552;28;20101;-65
2022/06/19 10:44:54;;;;;;;9.70;2.55;;;17.00;99.90;;;;;;5096355;28;20097;-64
2022/06/19 10:47:38;;;;;;;7.25;2.20;;;17.10;99.90;;;;;;5096381;28;20094;-65
2022/06/19 10:50:23;;;;;;;8.77;2.22;;;17.40;99.90;;;;;;5096354;28;20182;-65
2022/06/19 10:53:13;;;;;;;8.48;2.10;;;17.20;99.90;;;;;;5096453;28;20072;-65
2022/06/19 10:55:47;;;;;;;9.50;2.08;;;17.20;99.90;;;;;;5096166;28;20490;-64
2022/06/19 10:58:24;;;;;;;9.20;2.50;;;17.30;99.90;;;;;;5095982;28;20128;-65
2022/06/19 11:01:00;;;;;;;11.15;2.50;;;17.40;99.90;;;;;;5096192;28;20093;-65
2022/06/19 11:06:59;;;;;;;7.43;2.00;;;17.80;99.90;;;;;;5096125;28;20147;-66
2022/06/19 11:09:36;;;;;;;6.95;1.85;;;18.50;99.90;;;;;;5095161;28;20511;-66
2022/06/19 11:12:07;;;;;;;8.15;2.30;;;18.50;99.90;;;;;;5078054;28;20383;-66
2022/06/19 11:14:38;;;;;;;9.40;2.25;;;18.40;99.90;;;;;;5095795;28;20044;-66
2022/06/19 11:17:14;;;;;;;6.93;2.00;;;18.50;99.90;;;;;;5077665;28;20051;-66
2022/06/19 11:19:48;;;;;;;7.07;1.85;;;18.70;99.90;;;;;;5095709;28;20050;-67
2022/06/19 11:22:38;;;;;;;8.13;1.90;;;18.70;99.90;;;;;;5077856;28;20441;-66
2022/06/19 11:25:19;;;;;;;7.65;2.10;;;18.30;99.90;;;;;;5095718;28;20442;-66
2022/06/19 11:28:05;;;;;;;6.88;1.92;;;18.30;99.90;;;;;;5095630;28;20051;-67
2022/06/19 11:30:41;;;;;;;7.95;1.90;;;17.90;99.90;;;;;;5095802;28;20036;-66
2022/06/19 11:33:16;;;;;;;9.43;1.50;;;17.50;99.90;;;;;;5095893;28;20044;-66
2022/06/19 11:35:56;;;;;;;11.32;2.47;;;17.20;99.90;;;;;;5095630;28;20384;-66
2022/06/19 11:38:43;;;;;;;8.57;2.65;;;16.80;99.90;;;;;;5095463;28;20044;-67
2022/06/19 11:41:21;;;;;;;10.60;1.88;;;16.80;99.90;;;;;;5095649;28;20040;-66
2022/06/19 11:44:04;;;;;;;9.27;2.25;;;16.70;99.90;;;;;;5095500;28;20040;-66
2022/06/19 11:46:31;;;;;;;8.98;2.33;;;16.40;99.90;;;;;;5095415;28;20059;-66
2022/06/19 11:49:25;;;;;;;7.87;2.30;;;16.20;99.90;;;;;;5095746;28;20047;-66
2022/06/19 11:51:52;;;;;;;8.55;2.35;;;16.10;99.90;;;;;;5095077;28;20298;-65
2022/06/19 11:54:32;;;;;;;6.28;1.80;;;16.00;99.90;;;;;;5095087;28;20563;-66
2022/06/19 11:56:58;;;;;;;7.55;2.17;;;16.10;99.90;;;;;;5095064;28;20090;-66
2022/06/19 11:59:44;;;;;;;5.45;1.95;;;16.20;99.90;;;;;;5095065;28;20467;-66
2022/06/19 12:02:28;;;;;;;8.20;2.00;;;16.30;99.90;;;;;;5095211;28;20055;-66
2022/06/19 12:04:59;;;;;;;7.07;2.20;;;16.40;99.90;;;;;;5094969;28;20044;-66
2022/06/19 12:07:31;;;;;;;6.90;2.17;;;16.50;99.90;;;;;;5094849;28;20052;-66
2022/06/19 12:10:13;;;;;;;9.82;2.50;;;16.60;99.90;;;;;;5094777;28;20046;-66
2022/06/19 12:12:38;;;;;;;8.25;2.33;;;16.80;99.90;;;;;;5094993;28;20048;-66
2022/06/19 12:15:13;;;;;;;8.23;2.15;;;16.60;99.90;;;;;;5093893;28;20066;-66
2022/06/19 12:17:41;;;;;;;9.63;2.10;;;16.50;99.90;;;;;;5095083;28;20040;-66
2022/06/19 12:20:07;;;;;;;5.85;1.75;;;16.30;99.90;;;;;;5094407;28;20043;-67
2022/06/19 12:22:52;;;;;;;8.95;1.90;;;16.20;99.90;;;;;;5094837;28;20115;-66
2022/06/19 12:25:34;;;;;;;6.85;2.08;;;16.20;99.90;;;;;;5094654;28;20131;-66
2022/06/19 12:28:06;;;;;;;5.72;1.85;;;16.10;99.90;;;;;;5094577;28;20036;-66
2022/06/19 12:30:36;;;;;;;6.97;1.92;;;16.10;99.90;;;;;;5094399;28;20052;-66
2022/06/19 12:33:09;;;;;;;6.68;1.88;;;16.20;99.90;;;;;;5094395;28;20071;-66
2022/06/19 12:35:39;;;;;;;8.07;2.60;;;16.40;99.90;;;;;;5094494;28;20047;-66
2022/06/19 12:38:13;;;;;;;10.63;2.60;;;16.60;99.90;;;;;;5094427;28;20090;-66
2022/06/19 12:41:15;;;;;;;9.75;2.55;;;16.70;99.90;;;;;;5094308;28;20048;-66
2022/06/19 12:44:19;;;;;;;9.10;2.08;;;17.10;99.90;;;;;;5094360;28;20039;-66
2022/06/19 12:46:50;;;;;;;4.55;1.67;;;17.50;99.90;;;;;;5076032;28;20048;-67
2022/06/19 12:49:43;;;;;;;6.88;1.70;;;17.50;99.90;;;;;;5093921;28;20518;-67
2022/06/19 12:52:44;;;;;;;6.18;1.70;;;17.70;99.90;;;;;;5094029;28;20534;-66
2022/06/19 12:55:33;;;;;;;5.72;1.52;;;18.30;99.90;;;;;;5094094;28;20444;-66
2022/06/19 12:58:18;;;;;;;5.07;1.50;;;18.20;99.90;;;;;;5093926;28;20480;-66
2022/06/19 13:00:58;;;;;;;6.10;1.67;;;18.00;99.90;;;;;;5094054;28;20090;-66
2022/06/19 13:03:29;;;;;;;5.40;1.20;;;17.80;99.90;;;;;;5093988;28;20035;-66
2022/06/19 13:06:27;;;;;;;3.95;1.30;;;17.80;99.90;;;;;;5094087;28;20448;-66
2022/06/19 13:09:20;;;;;;;5.85;1.70;;;17.40;99.90;;;;;;5094097;28;20050;-66
2022/06/19 13:12:01;;;;;;;6.90;1.67;;;17.40;99.90;;;;;;5093740;28;20072;-66
2022/06/19 13:14:44;;;;;;;6.63;1.55;;;17.50;99.90;;;;;;5093685;28;20044;-66
2022/06/19 13:17:20;;;;;;;5.10;1.90;;;17.30;99.90;;;;;;5094209;28;20044;-66
2022/06/19 13:20:02;;;;;;;5.10;1.30;;;17.30;99.90;;;;;;5093648;28;20044;-66
2022/06/19 13:22:39;;;;;;;3.72;1.10;;;17.30;99.90;;;;;;5093595;28;20063;-66
2022/06/19 13:25:12;;;;;;;5.10;1.50;;;17.50;99.90;;;;;;5093808;28;20044;-66